Time;durP1;ratioP1;P1;durP2;ratioP2;P2;SDS_P1;SDS_P2;PMS_P1;PMS_P2;Temp;Humidity;BMP_temperature;BMP_pressure;BME280_temperature;BME280_humidity;BME280_pressure;Samples;Min_cycle;Max_cycle;Signal;HPM_P1;HPM_P2
2022/06/21 00:00:49;;;;;;;5.18;3.90;;;;;;;18.08;62.29;94549.88;5097039;28;20177;-75
2022/06/21 00:03:20;;;;;;;6.03;4.53;;;;;;;18.11;62.80;94551.03;5097154;28;20621;-75
2022/06/21 00:05:49;;;;;;;4.68;4.25;;;;;;;18.11;62.59;94551.03;5096597;28;20223;-75
2022/06/21 00:08:18;;;;;;;5.15;4.75;;;;;;;18.10;62.70;94550.25;5097456;28;20199;-75
2022/06/21 00:10:46;;;;;;;4.38;3.97;;;;;;;18.07;62.77;94551.09;5095696;28;20200;-75
2022/06/21 00:13:17;;;;;;;5.15;4.65;;;;;;;18.04;62.76;94551.91;5095738;28;20185;-76
2022/06/21 00:15:44;;;;;;;5.68;4.70;;;;;;;17.96;62.56;94558.78;5094991;28;20208;-75
2022/06/21 00:18:12;;;;;;;5.88;4.90;;;;;;;17.88;63.16;94555.25;5098859;28;20201;-74
2022/06/21 00:20:39;;;;;;;4.43;4.10;;;;;;;17.88;63.23;94558.03;5099990;28;20192;-74
2022/06/21 00:23:06;;;;;;;4.72;4.15;;;;;;;17.87;63.34;94555.69;5097187;28;20192;-74
2022/06/21 00:25:33;;;;;;;5.45;4.13;;;;;;;17.87;63.30;94542.53;5098089;28;20218;-75
2022/06/21 00:28:00;;;;;;;5.15;4.53;;;;;;;17.87;63.69;94547.31;5097508;28;20238;-75
2022/06/21 00:30:28;;;;;;;6.75;5.18;;;;;;;17.90;63.37;94543.66;5098930;28;20197;-75
2022/06/21 00:32:56;;;;;;;5.00;4.60;;;;;;;17.89;63.44;94542.09;5098634;28;20181;-74
2022/06/21 00:35:24;;;;;;;4.80;4.25;;;;;;;17.84;63.47;94537.75;5096319;28;20192;-76
2022/06/21 00:37:51;;;;;;;4.68;4.15;;;;;;;17.76;63.56;94550.19;5096740;28;20196;-75
2022/06/21 00:40:27;;;;;;;4.45;4.07;;;;;;;17.77;63.93;94546.97;5102545;28;20199;-75
2022/06/21 00:42:58;;;;;;;5.13;4.60;;;;;;;17.79;63.50;94540.97;5103015;28;20211;-74
2022/06/21 00:45:38;;;;;;;4.78;4.10;;;;;;;17.81;64.10;94541.38;5103322;28;20263;-75
2022/06/21 00:48:12;;;;;;;4.80;4.40;;;;;;;17.82;64.20;94554.09;5102015;28;20188;-74
2022/06/21 00:50:41;;;;;;;4.93;4.50;;;;;;;17.79;63.64;94550.16;5102032;28;20201;-74
2022/06/21 00:53:15;;;;;;;4.65;4.35;;;;;;;17.73;63.73;94543.41;5102598;28;20200;-75
2022/06/21 00:55:46;;;;;;;4.90;4.50;;;;;;;17.72;63.90;94543.81;5103123;28;20219;-75
2022/06/21 00:58:15;;;;;;;5.82;4.72;;;;;;;17.68;63.79;94548.63;5103822;28;20291;-74
2022/06/21 01:00:54;;;;;;;5.65;4.55;;;;;;;17.61;63.69;94543.09;5104219;28;20283;-74
2022/06/21 01:03:23;;;;;;;7.03;4.88;;;;;;;17.54;63.81;94550.34;5102335;28;20204;-74
2022/06/21 01:05:52;;;;;;;6.15;4.93;;;;;;;17.50;63.88;94548.75;5102592;28;20207;-74
2022/06/21 01:08:22;;;;;;;5.55;5.10;;;;;;;17.46;63.70;94537.63;5102878;28;20188;-74
2022/06/21 01:10:54;;;;;;;5.75;5.10;;;;;;;17.50;63.84;94534.81;5102982;28;20196;-74
2022/06/21 01:13:24;;;;;;;5.38;4.88;;;;;;;17.52;63.56;94540.78;5101364;28;20200;-75
2022/06/21 01:15:52;;;;;;;6.57;5.20;;;;;;;17.55;63.67;94545.56;5098952;28;20193;-74
2022/06/21 01:18:21;;;;;;;6.15;5.65;;;;;;;17.57;63.51;94548.69;5099797;28;20184;-74
2022/06/21 01:20:50;;;;;;;6.18;5.18;;;;;;;17.59;63.97;94545.53;5098310;28;20246;-74
2022/06/21 01:23:26;;;;;;;5.80;5.22;;;;;;;17.60;64.45;94541.53;5096930;28;20283;-75
2022/06/21 01:25:56;;;;;;;6.53;5.72;;;;;;;17.57;64.54;94557.06;5100258;28;20287;-75
2022/06/21 01:28:25;;;;;;;6.43;5.47;;;;;;;17.54;64.48;94547.56;5099528;28;20232;-75
2022/06/21 01:30:55;;;;;;;5.10;4.70;;;;;;;17.52;64.22;94547.16;5101185;28;20196;-75
2022/06/21 01:33:29;;;;;;;6.07;5.53;;;;;;;17.53;64.62;94547.94;5098517;28;20193;-74
2022/06/21 01:35:57;;;;;;;6.90;5.60;;;;;;;17.50;64.69;94555.16;5098596;28;20201;-75
2022/06/21 01:38:27;;;;;;;9.65;5.80;;;;;;;17.49;64.76;94559.13;5095382;28;20235;-75
2022/06/21 01:41:00;;;;;;;6.57;5.57;;;;;;;17.46;64.87;94545.22;5094812;28;20192;-75
2022/06/21 01:43:29;;;;;;;7.60;5.78;;;;;;;17.39;64.60;94542.47;5095016;28;20189;-75
2022/06/21 01:46:03;;;;;;;6.15;5.55;;;;;;;17.36;64.62;94546.06;5097148;28;20197;-75
2022/06/21 01:48:34;;;;;;;6.53;5.18;;;;;;;17.34;64.72;94546.50;5099134;28;20200;-75
2022/06/21 01:51:03;;;;;;;5.43;4.93;;;;;;;17.33;64.25;94551.28;5094908;28;20212;-75
2022/06/21 01:53:30;;;;;;;5.60;5.10;;;;;;;17.35;64.67;94555.66;5094037;28;20188;-75
2022/06/21 01:55:59;;;;;;;6.93;5.70;;;;;;;17.31;65.02;94553.66;5096848;28;20196;-75
2022/06/21 01:58:31;;;;;;;5.60;4.78;;;;;;;17.31;65.24;94550.88;5097955;28;20195;-74
2022/06/21 02:01:01;;;;;;;7.80;5.22;;;;;;;17.30;65.21;94554.88;5098445;28;20264;-74
2022/06/21 02:03:31;;;;;;;5.55;4.88;;;;;;;17.32;65.03;94554.50;5100560;28;20192;-75
2022/06/21 02:06:01;;;;;;;5.45;4.95;;;;;;;17.30;65.08;94560.47;5104794;28;20192;-75
2022/06/21 02:08:35;;;;;;;5.95;4.90;;;;;;;17.25;65.41;94551.75;5104779;28;20204;-74
2022/06/21 02:11:07;;;;;;;6.40;4.95;;;;;;;17.23;65.41;94548.56;5103905;28;20620;-74
2022/06/21 02:13:41;;;;;;;7.13;5.30;;;;;;;17.22;65.54;94555.34;5103560;28;20592;-75
2022/06/21 02:16:10;;;;;;;6.10;5.10;;;;;;;17.21;65.75;94562.91;5100802;28;20650;-74
2022/06/21 02:18:40;;;;;;;5.88;5.32;;;;;;;17.22;65.29;94558.13;5099587;28;20197;-74
2022/06/21 02:21:11;;;;;;;5.80;5.20;;;;;;;17.22;65.67;94558.94;5098052;28;20193;-75
2022/06/21 02:23:40;;;;;;;7.68;6.25;;;;;;;17.18;65.48;94552.59;5097528;28;20203;-74
2022/06/21 02:26:07;;;;;;;6.93;5.53;;;;;;;17.13;65.66;94549.41;5097238;28;20203;-75
2022/06/21 02:28:35;;;;;;;7.75;5.53;;;;;;;17.05;65.83;94546.69;5098134;28;20204;-75
2022/06/21 02:31:02;;;;;;;7.47;5.22;;;;;;;17.04;65.86;94547.09;5097317;28;20207;-74
2022/06/21 02:33:31;;;;;;;5.97;5.47;;;;;;;17.00;66.03;94549.91;5097210;28;20628;-74
2022/06/21 02:36:00;;;;;;;8.60;5.25;;;;;;;16.95;66.02;94541.97;5098148;28;20196;-74
2022/06/21 02:38:31;;;;;;;5.82;5.28;;;;;;;16.93;66.09;94543.59;5098620;28;20180;-74
2022/06/21 02:41:04;;;;;;;10.27;6.47;;;;;;;16.96;66.21;94540.00;5098194;28;20180;-75
2022/06/21 02:43:35;;;;;;;11.02;7.80;;;;;;;16.92;65.95;94548.38;5097763;28;20188;-75
2022/06/21 02:46:08;;;;;;;8.20;6.43;;;;;;;16.92;65.84;94550.34;5099218;28;20268;-74
2022/06/21 02:48:37;;;;;;;10.93;6.22;;;;;;;16.92;65.82;94540.00;5097551;28;20204;-71
2022/06/21 02:51:07;;;;;;;12.80;6.85;;;;;;;16.89;66.28;94540.81;5096603;28;20609;-71
2022/06/21 02:53:36;;;;;;;7.32;5.82;;;;;;;16.88;66.20;94541.22;5096848;28;20200;-71
2022/06/21 02:56:07;;;;;;;8.93;5.72;;;;;;;16.80;66.03;94535.69;5096150;28;20203;-72
2022/06/21 02:58:39;;;;;;;7.70;6.53;;;;;;;16.75;66.25;94538.91;5096188;28;20208;-75
2022/06/21 03:01:16;;;;;;;9.38;5.32;;;;;;;16.76;66.46;94543.25;5096543;28;20188;-75
2022/06/21 03:03:45;;;;;;;8.25;5.07;;;;;;;16.73;66.36;94535.69;5096484;28;20192;-74
2022/06/21 03:06:12;;;;;;;8.30;5.22;;;;;;;16.70;66.73;94530.13;5096275;28;20208;-74
2022/06/21 03:08:48;;;;;;;5.95;5.30;;;;;;;16.68;66.86;94533.34;5096684;28;20212;-74
2022/06/21 03:11:15;;;;;;;7.80;5.30;;;;;;;16.67;66.87;94528.19;5096959;28;20191;-74
2022/06/21 03:13:44;;;;;;;7.07;5.20;;;;;;;16.69;66.89;94532.13;5096741;28;20205;-74
2022/06/21 03:16:13;;;;;;;7.78;5.20;;;;;;;16.69;67.13;94529.34;5096489;28;20210;-74
2022/06/21 03:18:44;;;;;;;8.63;5.78;;;;;;;16.71;66.84;94534.53;5095678;28;20200;-74
2022/06/21 03:21:14;;;;;;;7.90;5.53;;;;;;;16.74;66.95;94520.63;5095956;28;20227;-74
2022/06/21 03:23:41;;;;;;;11.65;5.90;;;;;;;16.72;66.82;94519.38;5096520;28;20192;-74
2022/06/21 03:26:09;;;;;;;10.05;5.30;;;;;;;16.73;66.84;94523.75;5095908;28;20196;-74
2022/06/21 03:28:37;;;;;;;9.40;6.00;;;;;;;16.76;67.34;94529.34;5095480;28;20219;-74
2022/06/21 03:31:08;;;;;;;7.30;5.60;;;;;;;16.77;66.95;94524.56;5095529;28;20211;-74
2022/06/21 03:33:37;;;;;;;6.28;5.20;;;;;;;16.76;67.29;94523.75;5095548;28;20204;-74
2022/06/21 03:36:07;;;;;;;5.90;5.20;;;;;;;16.75;67.42;94527.75;5096208;28;20202;-74
2022/06/21 03:38:35;;;;;;;8.13;5.72;;;;;;;16.76;67.47;94526.56;5095600;28;20197;-74
2022/06/21 03:43:49;;;;;;;11.57;6.20;;;;;;;16.83;67.23;94532.09;5095830;28;20189;-74
2022/06/21 03:46:22;;;;;;;5.85;5.35;;;;;;;16.86;67.36;94538.06;5095440;28;20539;-74
2022/06/21 03:48:52;;;;;;;5.80;5.28;;;;;;;16.84;67.36;94547.59;5095279;28;20220;-75
2022/06/21 03:51:22;;;;;;;9.20;5.63;;;;;;;16.85;67.84;94548.41;5095314;28;20205;-74
2022/06/21 03:53:52;;;;;;;6.47;5.47;;;;;;;16.87;67.11;94548.00;5095552;28;20192;-74
2022/06/21 03:56:24;;;;;;;6.63;5.80;;;;;;;16.87;67.12;94542.41;5095770;28;20192;-75
2022/06/21 03:58:55;;;;;;;5.60;5.13;;;;;;;16.89;65.98;94554.75;5095465;28;20196;-74
2022/06/21 04:01:27;;;;;;;5.35;4.85;;;;;;;16.92;65.75;94553.13;5095204;28;20211;-75
2022/06/21 04:04:00;;;;;;;6.55;5.03;;;;;;;16.92;65.50;94553.94;5095539;28;20203;-74
2022/06/21 04:06:31;;;;;;;5.47;4.88;;;;;;;16.93;65.42;94546.38;5096676;28;20200;-72
2022/06/21 04:09:01;;;;;;;5.03;4.53;;;;;;;16.91;65.10;94541.19;5096132;28;20215;-72
2022/06/21 04:11:32;;;;;;;5.78;5.30;;;;;;;16.91;65.64;94534.81;5095106;28;20203;-72
2022/06/21 04:14:03;;;;;;;6.35;4.95;;;;;;;16.93;66.00;94536.03;5095951;28;20195;-72
2022/06/21 04:16:35;;;;;;;7.57;4.90;;;;;;;16.93;65.92;94538.81;5096117;28;20195;-73
2022/06/21 04:19:05;;;;;;;6.07;4.60;;;;;;;16.92;66.34;94530.84;5095403;28;20192;-77
2022/06/21 04:21:37;;;;;;;4.95;4.53;;;;;;;16.93;66.05;94530.44;5096198;28;20589;-74
2022/06/21 04:24:09;;;;;;;5.75;4.90;;;;;;;16.96;66.44;94528.84;5096530;28;20261;-74
2022/06/21 04:26:44;;;;;;;5.20;4.80;;;;;;;16.97;66.81;94536.00;5095459;28;20232;-75
2022/06/21 04:29:14;;;;;;;4.90;4.43;;;;;;;16.99;66.73;94523.25;5095175;28;20212;-76
2022/06/21 04:31:46;;;;;;;6.57;4.70;;;;;;;17.01;66.71;94520.84;5096711;28;20184;-75
2022/06/21 04:34:17;;;;;;;5.68;5.05;;;;;;;17.03;66.92;94515.66;5095194;28;20615;-75
2022/06/21 04:36:47;;;;;;;8.85;6.38;;;;;;;17.07;67.35;94508.06;5096139;28;20513;-75
2022/06/21 04:39:18;;;;;;;7.40;6.68;;;;;;;17.14;66.56;94515.59;5096014;28;20191;-75
2022/06/21 04:41:49;;;;;;;10.75;7.35;;;;;;;17.20;67.09;94508.38;5095965;28;20203;-75
2022/06/21 04:44:21;;;;;;;7.63;6.72;;;;;;;17.30;67.08;94518.66;5095693;28;20188;-75
2022/06/21 04:46:53;;;;;;;9.18;7.10;;;;;;;17.35;66.48;94516.63;5095486;28;20192;-75
2022/06/21 04:49:23;;;;;;;7.88;7.15;;;;;;;17.37;65.81;94522.59;5094760;28;20204;-75
2022/06/21 04:51:52;;;;;;;9.30;7.20;;;;;;;17.39;65.88;94526.53;5095700;28;20185;-75
2022/06/21 04:54:25;;;;;;;8.45;7.60;;;;;;;17.37;67.17;94534.53;5095519;28;20192;-75
2022/06/21 04:57:01;;;;;;;10.50;8.23;;;;;;;17.36;67.51;94541.31;5095235;28;20227;-75
2022/06/21 04:59:30;;;;;;;9.63;8.45;;;;;;;17.37;67.36;94540.09;5095441;28;20176;-76
2022/06/21 05:01:59;;;;;;;14.93;7.90;;;;;;;17.39;66.92;94548.84;5095627;28;20211;-75
2022/06/21 05:04:28;;;;;;;8.88;8.02;;;;;;;17.41;66.85;94546.44;5095129;28;20210;-75
2022/06/21 05:06:57;;;;;;;8.20;7.43;;;;;;;17.43;67.10;94557.16;5094418;28;20512;-75
2022/06/21 05:09:25;;;;;;;7.38;6.68;;;;;;;17.47;66.80;94564.34;5094908;28;20212;-75
2022/06/21 05:12:00;;;;;;;7.60;6.55;;;;;;;17.50;66.79;94562.69;5095037;28;20193;-75
2022/06/21 05:14:30;;;;;;;7.40;6.70;;;;;;;17.53;66.11;94564.66;5094591;28;20203;-75
2022/06/21 05:16:58;;;;;;;7.00;6.30;;;;;;;17.54;66.11;94566.28;5095362;28;20189;-75
2022/06/21 05:19:29;;;;;;;7.55;6.38;;;;;;;17.57;65.69;94576.59;5095028;28;20191;-75
2022/06/21 05:21:58;;;;;;;7.28;5.93;;;;;;;17.59;65.86;94567.81;5094557;28;20196;-75
2022/06/21 05:24:25;;;;;;;7.35;6.10;;;;;;;17.61;65.16;94568.19;5095238;28;20185;-75
2022/06/21 05:26:59;;;;;;;6.70;6.07;;;;;;;17.62;64.58;94561.44;5095160;28;20232;-76
2022/06/21 05:29:30;;;;;;;7.07;6.38;;;;;;;17.66;64.63;94562.97;5095217;28;20216;-75
2022/06/21 05:32:01;;;;;;;6.30;5.70;;;;;;;17.72;64.29;94557.75;5095244;28;20196;-75
2022/06/21 05:34:30;;;;;;;6.45;5.72;;;;;;;17.73;64.55;94560.13;5095024;28;20181;-75
2022/06/21 05:37:00;;;;;;;8.25;6.68;;;;;;;17.76;65.31;94561.34;5095483;28;20181;-75
2022/06/21 05:39:30;;;;;;;8.35;6.80;;;;;;;17.80;65.31;94550.94;5097331;28;20196;-75
2022/06/21 05:42:01;;;;;;;7.40;6.70;;;;;;;17.84;65.43;94550.91;5098351;28;20602;-75
2022/06/21 05:44:31;;;;;;;7.32;6.60;;;;;;;17.89;65.29;94551.25;5098860;28;20214;-75
2022/06/21 05:47:03;;;;;;;7.82;7.03;;;;;;;17.94;65.36;94550.81;5099139;28;20193;-75
2022/06/21 05:49:31;;;;;;;7.03;6.10;;;;;;;17.99;65.23;94544.00;5098013;28;20216;-75
2022/06/21 05:52:01;;;;;;;7.45;6.60;;;;;;;18.06;64.74;94540.34;5099349;28;20184;-75
2022/06/21 05:54:33;;;;;;;7.10;6.50;;;;;;;18.09;65.52;94543.09;5098922;28;20181;-75
2022/06/21 05:57:01;;;;;;;7.50;6.70;;;;;;;18.17;65.43;94547.41;5097895;28;20199;-75
2022/06/21 05:59:28;;;;;;;8.30;6.55;;;;;;;18.20;65.55;94543.78;5098821;28;20189;-75
2022/06/21 06:01:59;;;;;;;7.07;6.47;;;;;;;18.25;65.41;94543.31;5098880;28;20533;-75
2022/06/21 06:04:31;;;;;;;8.65;6.40;;;;;;;18.31;65.95;94535.28;5097852;28;20196;-75
2022/06/21 06:06:59;;;;;;;7.60;6.85;;;;;;;18.35;65.62;94540.84;5098761;28;20196;-75
2022/06/21 06:09:29;;;;;;;8.65;7.40;;;;;;;18.40;65.56;94540.38;5097641;28;20220;-75
2022/06/21 06:12:00;;;;;;;8.75;6.90;;;;;;;18.43;65.57;94545.91;5098379;28;20200;-75
2022/06/21 06:14:33;;;;;;;6.45;5.75;;;;;;;18.49;65.62;94535.88;5097974;28;20513;-75
2022/06/21 06:17:02;;;;;;;7.57;6.32;;;;;;;18.55;65.38;94541.00;5097477;28;20188;-75
2022/06/21 06:19:34;;;;;;;7.65;6.63;;;;;;;18.61;65.56;94548.50;5098312;28;20180;-75
2022/06/21 06:22:15;;;;;;;8.48;6.30;;;;;;;18.66;65.49;94558.41;5097955;28;20241;-75
2022/06/21 06:24:46;;;;;;;8.82;6.45;;;;;;;18.71;65.34;94555.22;5097537;28;20200;-75
2022/06/21 06:27:26;;;;;;;7.35;6.65;;;;;;;18.75;65.25;94569.91;5096387;28;20660;-75
2022/06/21 06:29:55;;;;;;;8.43;7.28;;;;;;;18.81;65.13;94564.66;5096700;28;20671;-75
2022/06/21 06:32:27;;;;;;;8.77;7.38;;;;;;;18.85;65.05;94566.22;5096620;28;20597;-75
2022/06/21 06:34:56;;;;;;;9.02;7.35;;;;;;;18.91;64.81;94569.31;5097315;28;20235;-75
2022/06/21 06:37:30;;;;;;;7.88;6.70;;;;;;;18.95;65.16;94556.91;5097537;28;20216;-75
2022/06/21 06:39:57;;;;;;;11.05;6.93;;;;;;;18.99;65.27;94566.03;5096726;28;20597;-75
2022/06/21 06:42:27;;;;;;;8.38;7.18;;;;;;;19.03;65.19;94567.94;5097029;28;20193;-75
2022/06/21 06:44:56;;;;;;;6.80;6.00;;;;;;;19.07;65.20;94544.34;5096869;28;20220;-75
2022/06/21 06:47:28;;;;;;;7.45;6.25;;;;;;;19.14;65.30;94549.06;5096731;28;20193;-75
2022/06/21 06:49:58;;;;;;;6.68;6.05;;;;;;;19.18;66.24;94553.38;5095823;28;20315;-75
2022/06/21 06:52:28;;;;;;;9.10;6.43;;;;;;;19.23;65.70;94550.09;5097666;28;20196;-75
2022/06/21 06:54:59;;;;;;;6.90;6.10;;;;;;;19.31;66.27;94552.78;5097370;28;20223;-75
2022/06/21 06:57:30;;;;;;;7.30;6.60;;;;;;;19.38;66.17;94541.50;5096418;28;20202;-75
2022/06/21 06:59:58;;;;;;;9.82;6.18;;;;;;;19.45;66.68;94535.81;5097546;28;20188;-75
2022/06/21 07:02:30;;;;;;;7.40;5.60;;;;;;;19.52;66.40;94538.50;5096771;28;20189;-76
2022/06/21 07:05:13;;;;;;;7.25;6.55;;;;;;;19.60;67.07;94536.38;5097089;28;20600;-75
2022/06/21 07:07:45;;;;;;;7.47;5.82;;;;;;;19.67;67.65;94533.50;5097118;28;20196;-75
2022/06/21 07:10:15;;;;;;;7.20;5.72;;;;;;;19.76;67.67;94525.34;5096968;28;20180;-75
2022/06/21 07:12:42;;;;;;;8.85;6.05;;;;;;;19.86;67.75;94530.00;5097063;28;20196;-75
2022/06/21 07:15:11;;;;;;;7.43;5.72;;;;;;;19.96;68.94;94520.59;5079555;28;20203;-75
2022/06/21 07:17:40;;;;;;;6.82;6.15;;;;;;;20.06;67.50;94526.44;5097234;28;20192;-76
2022/06/21 07:20:14;;;;;;;5.75;5.13;;;;;;;20.19;65.12;94521.81;5096515;28;20192;-76
2022/06/21 07:22:41;;;;;;;5.60;5.10;;;;;;;20.31;63.75;94532.38;5096583;28;20253;-76
2022/06/21 07:25:17;;;;;;;6.10;5.50;;;;;;;20.50;60.79;94532.84;5096789;28;20192;-76
2022/06/21 07:27:46;;;;;;;6.28;5.68;;;;;;;20.63;60.04;94525.38;5096910;28;20277;-76
2022/06/21 07:30:16;;;;;;;7.47;5.75;;;;;;;20.76;59.41;94531.91;5095939;28;20210;-76
2022/06/21 07:32:46;;;;;;;6.82;5.20;;;;;;;20.85;58.66;94537.72;5096281;28;20198;-75
2022/06/21 07:35:18;;;;;;;5.72;5.32;;;;;;;21.04;56.52;94541.72;5096688;28;20200;-75
2022/06/21 07:37:49;;;;;;;7.35;5.45;;;;;;;21.13;56.79;94539.16;5098514;28;20187;-75
2022/06/21 07:40:21;;;;;;;5.57;5.07;;;;;;;21.19;57.28;94536.59;5097509;28;20192;-75
2022/06/21 07:42:54;;;;;;;5.93;5.43;;;;;;;21.27;57.16;94542.84;5096939;28;20196;-75
2022/06/21 07:45:26;;;;;;;5.97;5.57;;;;;;;21.39;56.59;94547.81;5096563;28;20246;-75
2022/06/21 07:47:58;;;;;;;8.15;5.85;;;;;;;21.47;56.91;94551.25;5096373;28;20188;-75
2022/06/21 07:50:34;;;;;;;6.38;5.68;;;;;;;21.55;56.74;94561.06;5096332;28;20189;-75
2022/06/21 07:53:20;;;;;;;7.43;6.20;;;;;;;21.60;56.79;94560.53;5095891;28;20195;-75
2022/06/21 07:55:50;;;;;;;6.97;6.28;;;;;;;21.69;56.89;94560.72;5096029;28;20228;-75
2022/06/21 07:58:21;;;;;;;6.78;6.10;;;;;;;21.79;57.01;94564.53;5096063;28;20200;-75
2022/06/21 08:06:45;;;;;;;8.07;6.00;;;;;;;21.89;57.21;94580.28;5095957;28;20200;-75
2022/06/21 08:09:19;;;;;;;6.97;6.38;;;;;;;21.97;57.71;94580.91;5097060;28;20212;-74
2022/06/21 08:11:47;;;;;;;7.45;6.72;;;;;;;22.06;57.02;94579.06;5096200;28;20204;-75
2022/06/21 08:14:15;;;;;;;9.77;6.53;;;;;;;22.06;57.91;94584.69;5096378;28;20249;-75
2022/06/21 08:16:54;;;;;;;8.63;7.05;;;;;;;22.10;57.66;94584.59;5096204;28;20192;-75
2022/06/21 08:19:25;;;;;;;7.68;7.00;;;;;;;22.21;57.86;94581.56;5095231;28;20636;-75
2022/06/21 08:21:57;;;;;;;7.35;6.85;;;;;;;22.29;58.40;94588.56;5095120;28;20204;-75
2022/06/21 08:24:28;;;;;;;8.15;7.45;;;;;;;22.33;57.83;94590.06;5095323;28;20188;-75
2022/06/21 08:26:59;;;;;;;8.07;7.10;;;;;;;22.37;57.41;94589.16;5094905;28;20243;-75
2022/06/21 08:29:30;;;;;;;7.97;7.20;;;;;;;22.48;57.49;94598.91;5094567;28;20218;-75
2022/06/21 08:32:06;;;;;;;10.02;8.38;;;;;;;22.51;57.54;94595.22;5094889;28;20189;-75
2022/06/21 08:34:35;;;;;;;8.38;7.50;;;;;;;22.51;57.43;94595.22;5095123;28;20192;-75
2022/06/21 08:37:08;;;;;;;8.30;7.50;;;;;;;22.53;57.79;94592.75;5094700;28;20197;-75
2022/06/21 08:39:40;;;;;;;8.90;8.00;;;;;;;22.58;57.89;94599.84;5094822;28;20204;-75
2022/06/21 08:42:37;;;;;;;9.32;8.30;;;;;;;22.65;58.22;94590.44;5094597;28;20195;-75
2022/06/21 08:45:44;;;;;;;8.85;8.05;;;;;;;22.71;58.54;94589.44;5094675;28;20225;-75
2022/06/21 08:48:41;;;;;;;8.88;8.05;;;;;;;22.74;59.16;94602.63;5094744;28;20196;-75
2022/06/21 08:51:27;;;;;;;8.88;8.05;;;;;;;22.79;58.53;94599.25;5094048;28;20196;-75
2022/06/21 08:54:04;;;;;;;9.48;8.63;;;;;;;22.86;58.50;94589.84;5094387;28;20218;-75
2022/06/21 08:56:38;;;;;;;8.77;7.88;;;;;;;22.86;59.49;94580.63;5094406;28;20265;-75
2022/06/21 08:59:14;;;;;;;9.80;8.38;;;;;;;22.95;59.43;94589.22;5094698;28;20192;-75
2022/06/21 09:01:45;;;;;;;10.20;8.68;;;;;;;22.96;58.75;94583.16;5095813;28;20195;-75
2022/06/21 09:04:27;;;;;;;10.23;8.85;;;;;;;23.01;59.08;94570.56;5094623;28;20203;-75
2022/06/21 09:07:12;;;;;;;10.32;9.00;;;;;;;23.12;60.11;94571.06;5093312;28;20223;-75
2022/06/21 09:09:53;;;;;;;10.27;9.25;;;;;;;23.17;58.65;94564.91;5095197;28;20200;-75
2022/06/21 09:12:27;;;;;;;10.90;9.57;;;;;;;23.25;58.55;94583.13;5095234;28;20184;-76
2022/06/21 09:15:16;;;;;;;9.95;8.75;;;;;;;23.29;58.31;94547.22;5099298;28;20195;-76
2022/06/21 09:17:49;;;;;;;9.60;8.70;;;;;;;23.40;58.59;94558.16;5095748;28;20204;-76
2022/06/21 09:20:26;;;;;;;9.73;8.68;;;;;;;23.49;59.00;94549.03;5099266;28;20190;-76
2022/06/21 09:23:06;;;;;;;10.15;9.18;;;;;;;23.56;58.66;94548.81;5098425;28;20191;-76
2022/06/21 09:25:44;;;;;;;10.13;8.82;;;;;;;23.64;58.38;94547.38;5098870;28;20200;-76
2022/06/21 09:28:20;;;;;;;9.65;8.77;;;;;;;23.71;57.47;94541.56;5098272;28;20232;-75
2022/06/21 09:30:52;;;;;;;10.15;9.25;;;;;;;23.80;57.76;94545.72;5098861;28;20535;-75
2022/06/21 09:33:22;;;;;;;9.77;8.85;;;;;;;23.87;57.49;94542.66;5098965;28;20180;-76
2022/06/21 09:35:57;;;;;;;10.43;9.32;;;;;;;23.92;58.56;94545.69;5099004;28;20185;-76
2022/06/21 09:38:44;;;;;;;11.35;9.38;;;;;;;24.00;58.87;94532.16;5097700;28;20206;-75
2022/06/21 09:41:17;;;;;;;10.32;9.40;;;;;;;24.08;57.81;94535.53;5097982;28;20207;-76
2022/06/21 09:43:52;;;;;;;10.57;9.57;;;;;;;24.16;58.69;94531.25;5098467;28;20211;-75
2022/06/21 09:46:26;;;;;;;10.60;9.60;;;;;;;24.26;58.69;94542.13;5098014;28;20200;-75
2022/06/21 09:48:59;;;;;;;10.52;9.52;;;;;;;24.33;57.71;94538.28;5098604;28;20207;-75
2022/06/21 09:51:34;;;;;;;10.73;9.70;;;;;;;24.36;57.75;94533.75;5098423;28;20181;-75
2022/06/21 09:54:20;;;;;;;11.27;10.05;;;;;;;24.43;57.70;94544.81;5098878;28;20176;-75
2022/06/21 09:56:53;;;;;;;13.02;9.77;;;;;;;24.52;57.49;94535.66;5098872;28;20180;-75
2022/06/21 09:59:24;;;;;;;11.70;10.50;;;;;;;24.55;58.09;94540.38;5098443;28;20596;-75
2022/06/21 10:01:58;;;;;;;14.75;10.07;;;;;;;24.64;57.49;94527.16;5098863;28;20181;-75
2022/06/21 10:04:30;;;;;;;11.45;10.10;;;;;;;24.69;57.26;94528.59;5098296;28;20189;-75
2022/06/21 10:07:05;;;;;;;11.25;9.65;;;;;;;24.74;56.19;94534.44;5098222;28;20266;-75
2022/06/21 10:09:42;;;;;;;11.43;10.40;;;;;;;24.77;56.01;94529.16;5097492;28;20228;-75
2022/06/21 10:12:16;;;;;;;11.43;9.85;;;;;;;24.85;55.21;94522.00;5097455;28;20199;-75
2022/06/21 10:15:18;;;;;;;11.98;10.55;;;;;;;24.95;56.64;94513.13;5098046;28;20192;-75
2022/06/21 10:18:11;;;;;;;10.27;9.40;;;;;;;25.08;57.82;94515.88;5097824;28;20180;-75
2022/06/21 10:20:50;;;;;;;10.70;9.38;;;;;;;25.11;55.51;94520.63;5091469;28;20218;-75
2022/06/21 10:23:36;;;;;;;10.43;9.32;;;;;;;25.18;56.01;94519.56;5097164;28;20199;-75
2022/06/21 10:26:19;;;;;;;10.13;9.13;;;;;;;25.24;54.07;94517.72;5096376;28;20294;-75
2022/06/21 10:29:01;;;;;;;9.45;8.57;;;;;;;25.34;55.05;94521.38;5097149;28;20200;-75
2022/06/21 10:31:52;;;;;;;9.68;8.77;;;;;;;25.38;53.85;94533.31;5096671;28;20631;-76
2022/06/21 10:34:46;;;;;;;9.40;8.57;;;;;;;25.42;54.11;94528.31;5097163;28;20214;-76
2022/06/21 10:37:26;;;;;;;10.20;8.77;;;;;;;25.47;54.85;94527.72;5097146;28;20188;-76
2022/06/21 10:40:30;;;;;;;8.93;8.18;;;;;;;25.46;53.59;94520.50;5096860;28;20211;-75
2022/06/21 10:43:26;;;;;;;8.85;8.15;;;;;;;25.47;53.19;94521.28;5097033;28;20196;-74
2022/06/21 10:45:58;;;;;;;10.32;8.40;;;;;;;25.49;53.26;94518.78;5093936;28;20197;-75
2022/06/21 10:48:53;;;;;;;9.50;8.60;;;;;;;25.42;52.95;94523.47;5096808;28;20201;-75
2022/06/21 10:51:27;;;;;;;9.88;8.88;;;;;;;25.34;54.07;94518.53;5096176;28;20207;-75
2022/06/21 10:54:19;;;;;;;10.13;9.13;;;;;;;25.27;54.68;94528.06;5097540;28;20176;-75
2022/06/21 10:57:11;;;;;;;10.23;9.32;;;;;;;25.32;54.21;94521.06;5096579;28;20204;-75
2022/06/21 11:03:10;;;;;;;9.65;8.82;;;;;;;25.63;55.66;94529.50;5042264;28;20292;-75
2022/06/21 11:05:41;;;;;;;10.82;9.65;;;;;;;25.68;54.42;94534.56;5044550;28;20204;-75
2022/06/21 11:08:14;;;;;;;9.98;9.18;;;;;;;25.75;55.37;94542.75;5096295;28;20192;-75
2022/06/21 11:10:45;;;;;;;10.52;9.63;;;;;;;25.78;54.79;94536.19;5096392;28;20219;-75
2022/06/21 11:13:15;;;;;;;10.48;9.68;;;;;;;25.70;54.30;94527.19;5096109;28;20196;-75
2022/06/21 11:15:52;;;;;;;10.57;9.57;;;;;;;25.60;54.35;94525.59;5096298;28;20315;-75
2022/06/21 11:18:35;;;;;;;11.23;9.88;;;;;;;25.62;55.74;94530.75;5096270;28;20211;-75
2022/06/21 11:21:07;;;;;;;11.07;10.13;;;;;;;25.73;53.81;94533.16;5096993;28;20195;-75
2022/06/21 11:23:43;;;;;;;11.88;10.57;;;;;;;25.79;54.67;94532.13;5096744;28;20192;-75
2022/06/21 11:26:27;;;;;;;12.45;10.80;;;;;;;25.89;54.08;94530.09;5095747;28;20208;-75
2022/06/21 11:29:00;;;;;;;11.38;10.20;;;;;;;25.94;53.72;94518.19;5096024;28;20204;-75
2022/06/21 11:31:29;;;;;;;10.70;9.77;;;;;;;25.99;54.03;94525.28;5095602;28;20200;-75
2022/06/21 11:34:02;;;;;;;11.60;10.65;;;;;;;26.09;56.42;94532.53;5097448;28;20176;-75
2022/06/21 11:36:34;;;;;;;12.20;10.95;;;;;;;26.15;55.24;94522.97;5095293;28;20201;-75
2022/06/21 11:39:15;;;;;;;11.23;10.30;;;;;;;26.26;53.66;94536.66;5095803;28;20203;-75
2022/06/21 11:42:06;;;;;;;11.52;10.52;;;;;;;26.32;53.39;94523.44;5096193;28;20600;-75
2022/06/21 11:44:45;;;;;;;10.60;9.63;;;;;;;26.40;53.60;94523.97;5095923;28;20260;-75
2022/06/21 11:47:14;;;;;;;10.35;9.55;;;;;;;26.42;53.64;94519.38;5096360;28;20195;-75
2022/06/21 11:49:48;;;;;;;11.52;10.40;;;;;;;26.46;52.96;94522.09;5095037;28;20713;-75
2022/06/21 11:52:50;;;;;;;10.50;9.70;;;;;;;26.52;52.60;94520.22;5095919;28;20196;-75
2022/06/21 11:55:21;;;;;;;11.30;10.20;;;;;;;26.55;50.80;94526.97;5096216;28;20515;-75
2022/06/21 11:57:51;;;;;;;11.05;10.02;;;;;;;26.56;50.85;94512.34;5095523;28;20200;-75
2022/06/21 12:00:23;;;;;;;11.23;10.18;;;;;;;26.59;52.56;94519.91;5094990;28;20201;-75
2022/06/21 12:02:54;;;;;;;11.15;10.15;;;;;;;26.62;51.70;94521.00;5095428;28;20212;-74
2022/06/21 12:05:36;;;;;;;10.55;9.55;;;;;;;26.67;51.66;94511.09;5096052;28;20208;-75
2022/06/21 12:08:09;;;;;;;11.27;10.20;;;;;;;26.71;50.98;94520.22;5096051;28;20257;-75
2022/06/21 12:10:46;;;;;;;11.57;10.50;;;;;;;26.75;51.87;94515.97;5095040;28;20273;-75